UPSVAC Airport Information Service

Fort Lauderdale Hollywood International Airport

ICAO: KFLL Country: United States
Latitude: 26.0726 Longitude: -80.1527
Latest Arrival : UPSJUMP (KRFD-KFLL) Latest Departure : UPSJUMP (KFLL-KPBI)


WX CaptureLIVE
Data provided by noaa.gov | Fetched at 13:14:36

METAR : KFLL 251253Z 13009KT 10SM SCT020 BKN250 23/20 A3006 RMK AO2 SLP177 T02330200

TAF : KFLL 251153Z 2512/2618 12007KT P6SM SCT020 BKN050 FM251700 14013KT P6SM FEW035 SCT070 FM260400 16006KT P6SM FEW025 SCT150 FM261600 17010KT P6SM FEW070 SCT120


Runway Data for KFLL
Data provided by openaviationdata.com

Runway ID Mag Var Hdg Length Elevation Surface ILS Freq ILS Id ILS Slope
09L -5 95° 8994 ft 9 ft Asphalt 110.1 ILHI 3
09R -5 95° 5272 ft 9 ft Asphalt 108.5 IFLL 0
13 -5 140° 6938 ft 9 ft Asphalt 109.35 ILID 0
27L -5 275° 5272 ft 9 ft Asphalt -- -- --
27R -5 275° 8994 ft 9 ft Asphalt 110.7 IUDL 3
31 -5 320° 6938 ft 9 ft Asphalt -- -- --

Fort Lauderdale Hollywood International Airport, United States
Use only for reference purposes



Not for navigational purposes.